sensor_id;sensor_type;location;lat;lon;timestamp;P1;durP1;ratioP1;P2;durP2;ratioP2
71513;SDS011;59335;46.652;21.272;2024-01-15T00:00:31;17.63;;;12.90;;
71513;SDS011;59335;46.652;21.272;2024-01-15T00:03:34;16.92;;;12.15;;
71513;SDS011;59335;46.652;21.272;2024-01-15T00:06:37;17.90;;;12.75;;
71513;SDS011;59335;46.652;21.272;2024-01-15T00:09:40;18.53;;;12.33;;
71513;SDS011;59335;46.652;21.272;2024-01-15T00:12:43;16.35;;;11.90;;
71513;SDS011;59335;46.652;21.272;2024-01-15T00:15:46;17.40;;;12.77;;
71513;SDS011;59335;46.652;21.272;2024-01-15T00:18:49;17.25;;;12.50;;
71513;SDS011;59335;46.652;21.272;2024-01-15T00:21:52;18.42;;;12.45;;
71513;SDS011;59335;46.652;21.272;2024-01-15T00:24:55;17.47;;;11.87;;
71513;SDS011;59335;46.652;21.272;2024-01-15T00:27:58;17.15;;;11.45;;
71513;SDS011;59335;46.652;21.272;2024-01-15T00:31:00;17.83;;;12.27;;
71513;SDS011;59335;46.652;21.272;2024-01-15T00:34:03;16.95;;;11.77;;
71513;SDS011;59335;46.652;21.272;2024-01-15T00:37:06;17.50;;;12.40;;
71513;SDS011;59335;46.652;21.272;2024-01-15T00:40:09;18.20;;;12.87;;
71513;SDS011;59335;46.652;21.272;2024-01-15T00:43:12;17.20;;;11.88;;
71513;SDS011;59335;46.652;21.272;2024-01-15T00:46:15;16.75;;;12.15;;
71513;SDS011;59335;46.652;21.272;2024-01-15T00:49:18;17.10;;;11.35;;
71513;SDS011;59335;46.652;21.272;2024-01-15T00:52:21;16.67;;;11.32;;
71513;SDS011;59335;46.652;21.272;2024-01-15T00:55:23;16.93;;;11.97;;
71513;SDS011;59335;46.652;21.272;2024-01-15T00:58:26;17.65;;;11.63;;
71513;SDS011;59335;46.652;21.272;2024-01-15T01:01:29;16.25;;;11.60;;
71513;SDS011;59335;46.652;21.272;2024-01-15T01:04:32;15.35;;;11.25;;
71513;SDS011;59335;46.652;21.272;2024-01-15T01:07:35;18.23;;;11.73;;
71513;SDS011;59335;46.652;21.272;2024-01-15T01:10:39;16.00;;;11.43;;
71513;SDS011;59335;46.652;21.272;2024-01-15T01:13:42;17.10;;;11.30;;
71513;SDS011;59335;46.652;21.272;2024-01-15T01:16:45;17.10;;;11.88;;
71513;SDS011;59335;46.652;21.272;2024-01-15T01:19:49;15.98;;;11.13;;
71513;SDS011;59335;46.652;21.272;2024-01-15T01:22:52;17.00;;;11.82;;
71513;SDS011;59335;46.652;21.272;2024-01-15T01:25:55;16.37;;;11.77;;
71513;SDS011;59335;46.652;21.272;2024-01-15T01:28:57;16.77;;;11.60;;
71513;SDS011;59335;46.652;21.272;2024-01-15T01:32:01;17.30;;;11.63;;
71513;SDS011;59335;46.652;21.272;2024-01-15T01:35:04;16.67;;;11.55;;
71513;SDS011;59335;46.652;21.272;2024-01-15T01:38:07;15.75;;;11.68;;
71513;SDS011;59335;46.652;21.272;2024-01-15T01:41:09;17.97;;;11.97;;
71513;SDS011;59335;46.652;21.272;2024-01-15T01:44:12;16.45;;;11.20;;
71513;SDS011;59335;46.652;21.272;2024-01-15T01:47:15;14.80;;;11.07;;
71513;SDS011;59335;46.652;21.272;2024-01-15T01:50:18;16.35;;;11.70;;
71513;SDS011;59335;46.652;21.272;2024-01-15T01:53:21;15.60;;;11.02;;
71513;SDS011;59335;46.652;21.272;2024-01-15T01:56:24;15.80;;;11.10;;
71513;SDS011;59335;46.652;21.272;2024-01-15T01:59:27;15.20;;;11.13;;
71513;SDS011;59335;46.652;21.272;2024-01-15T02:02:31;14.45;;;10.90;;
71513;SDS011;59335;46.652;21.272;2024-01-15T02:05:35;16.08;;;11.30;;
71513;SDS011;59335;46.652;21.272;2024-01-15T02:08:38;17.80;;;11.73;;
71513;SDS011;59335;46.652;21.272;2024-01-15T02:11:42;17.17;;;10.40;;
71513;SDS011;59335;46.652;21.272;2024-01-15T02:14:44;15.23;;;10.57;;
71513;SDS011;59335;46.652;21.272;2024-01-15T02:17:57;17.05;;;11.15;;
71513;SDS011;59335;46.652;21.272;2024-01-15T02:21:01;16.27;;;10.82;;
71513;SDS011;59335;46.652;21.272;2024-01-15T02:24:04;15.40;;;10.98;;
71513;SDS011;59335;46.652;21.272;2024-01-15T02:27:07;15.43;;;10.30;;
71513;SDS011;59335;46.652;21.272;2024-01-15T02:30:13;15.35;;;11.02;;
71513;SDS011;59335;46.652;21.272;2024-01-15T02:33:16;17.15;;;11.32;;
71513;SDS011;59335;46.652;21.272;2024-01-15T02:36:19;15.90;;;10.82;;
71513;SDS011;59335;46.652;21.272;2024-01-15T02:39:22;14.90;;;10.50;;
71513;SDS011;59335;46.652;21.272;2024-01-15T02:42:26;15.30;;;10.90;;
71513;SDS011;59335;46.652;21.272;2024-01-15T02:45:29;15.85;;;10.57;;
71513;SDS011;59335;46.652;21.272;2024-01-15T02:48:32;14.45;;;10.45;;
71513;SDS011;59335;46.652;21.272;2024-01-15T02:51:37;13.93;;;10.02;;
71513;SDS011;59335;46.652;21.272;2024-01-15T02:54:40;15.38;;;10.95;;
71513;SDS011;59335;46.652;21.272;2024-01-15T02:57:43;15.60;;;9.97;;
71513;SDS011;59335;46.652;21.272;2024-01-15T03:00:46;14.90;;;10.23;;
71513;SDS011;59335;46.652;21.272;2024-01-15T03:03:49;13.40;;;10.07;;
71513;SDS011;59335;46.652;21.272;2024-01-15T03:06:52;14.93;;;10.45;;
71513;SDS011;59335;46.652;21.272;2024-01-15T03:09:55;15.05;;;10.15;;
71513;SDS011;59335;46.652;21.272;2024-01-15T03:12:58;15.50;;;10.73;;
71513;SDS011;59335;46.652;21.272;2024-01-15T03:16:01;13.88;;;9.90;;
71513;SDS011;59335;46.652;21.272;2024-01-15T03:19:04;14.35;;;10.00;;
71513;SDS011;59335;46.652;21.272;2024-01-15T03:22:07;16.50;;;10.05;;
71513;SDS011;59335;46.652;21.272;2024-01-15T03:25:11;14.85;;;9.95;;
71513;SDS011;59335;46.652;21.272;2024-01-15T03:28:14;14.03;;;9.70;;
71513;SDS011;59335;46.652;21.272;2024-01-15T03:31:17;13.18;;;9.63;;
71513;SDS011;59335;46.652;21.272;2024-01-15T03:34:19;14.98;;;10.48;;
71513;SDS011;59335;46.652;21.272;2024-01-15T03:37:22;15.38;;;10.15;;
71513;SDS011;59335;46.652;21.272;2024-01-15T03:40:25;15.38;;;10.32;;
71513;SDS011;59335;46.652;21.272;2024-01-15T03:43:28;14.07;;;9.57;;
71513;SDS011;59335;46.652;21.272;2024-01-15T03:46:31;14.02;;;9.52;;
71513;SDS011;59335;46.652;21.272;2024-01-15T03:49:35;15.00;;;10.05;;
71513;SDS011;59335;46.652;21.272;2024-01-15T03:52:38;14.57;;;9.48;;
71513;SDS011;59335;46.652;21.272;2024-01-15T03:55:40;13.98;;;9.23;;
71513;SDS011;59335;46.652;21.272;2024-01-15T03:58:43;14.33;;;9.57;;
71513;SDS011;59335;46.652;21.272;2024-01-15T04:01:49;14.40;;;9.90;;
71513;SDS011;59335;46.652;21.272;2024-01-15T04:04:53;14.80;;;10.13;;
71513;SDS011;59335;46.652;21.272;2024-01-15T04:07:56;14.68;;;9.82;;
71513;SDS011;59335;46.652;21.272;2024-01-15T04:10:59;14.50;;;9.85;;
71513;SDS011;59335;46.652;21.272;2024-01-15T04:14:03;13.63;;;9.80;;
71513;SDS011;59335;46.652;21.272;2024-01-15T04:17:06;14.73;;;9.80;;
71513;SDS011;59335;46.652;21.272;2024-01-15T04:20:09;12.93;;;9.18;;
71513;SDS011;59335;46.652;21.272;2024-01-15T04:23:13;12.43;;;9.23;;
71513;SDS011;59335;46.652;21.272;2024-01-15T04:26:15;13.88;;;9.45;;
71513;SDS011;59335;46.652;21.272;2024-01-15T04:29:18;14.27;;;9.97;;
71513;SDS011;59335;46.652;21.272;2024-01-15T04:32:21;14.27;;;9.98;;
71513;SDS011;59335;46.652;21.272;2024-01-15T04:35:24;13.32;;;9.15;;
71513;SDS011;59335;46.652;21.272;2024-01-15T04:38:27;13.45;;;9.40;;
71513;SDS011;59335;46.652;21.272;2024-01-15T04:41:30;12.70;;;9.00;;
71513;SDS011;59335;46.652;21.272;2024-01-15T04:44:33;14.13;;;9.73;;
71513;SDS011;59335;46.652;21.272;2024-01-15T04:47:37;12.75;;;9.18;;
71513;SDS011;59335;46.652;21.272;2024-01-15T04:50:40;14.43;;;9.63;;
71513;SDS011;59335;46.652;21.272;2024-01-15T04:53:43;13.52;;;9.15;;
71513;SDS011;59335;46.652;21.272;2024-01-15T04:56:47;14.25;;;9.20;;
71513;SDS011;59335;46.652;21.272;2024-01-15T04:59:50;13.03;;;9.13;;
71513;SDS011;59335;46.652;21.272;2024-01-15T05:02:52;13.65;;;9.57;;
71513;SDS011;59335;46.652;21.272;2024-01-15T05:05:55;14.05;;;9.32;;
71513;SDS011;59335;46.652;21.272;2024-01-15T05:08:58;13.25;;;9.32;;
71513;SDS011;59335;46.652;21.272;2024-01-15T05:12:02;13.95;;;9.32;;
71513;SDS011;59335;46.652;21.272;2024-01-15T05:15:05;13.43;;;9.30;;
71513;SDS011;59335;46.652;21.272;2024-01-15T05:18:08;14.10;;;9.40;;
71513;SDS011;59335;46.652;21.272;2024-01-15T05:21:11;12.85;;;8.80;;
71513;SDS011;59335;46.652;21.272;2024-01-15T05:24:14;13.55;;;8.73;;
71513;SDS011;59335;46.652;21.272;2024-01-15T05:27:17;14.13;;;8.98;;
71513;SDS011;59335;46.652;21.272;2024-01-15T05:30:20;13.00;;;9.27;;
71513;SDS011;59335;46.652;21.272;2024-01-15T05:33:23;12.70;;;8.80;;
71513;SDS011;59335;46.652;21.272;2024-01-15T05:36:27;13.68;;;9.25;;
71513;SDS011;59335;46.652;21.272;2024-01-15T05:39:29;13.10;;;9.20;;
71513;SDS011;59335;46.652;21.272;2024-01-15T05:42:32;12.98;;;8.88;;
71513;SDS011;59335;46.652;21.272;2024-01-15T05:45:35;14.17;;;9.20;;
71513;SDS011;59335;46.652;21.272;2024-01-15T05:48:38;13.15;;;8.77;;
71513;SDS011;59335;46.652;21.272;2024-01-15T05:51:41;13.98;;;9.05;;
71513;SDS011;59335;46.652;21.272;2024-01-15T05:54:44;12.00;;;8.63;;
71513;SDS011;59335;46.652;21.272;2024-01-15T05:57:47;13.32;;;9.65;;
71513;SDS011;59335;46.652;21.272;2024-01-15T06:00:50;13.67;;;8.73;;
71513;SDS011;59335;46.652;21.272;2024-01-15T06:03:54;13.38;;;9.63;;
71513;SDS011;59335;46.652;21.272;2024-01-15T06:06:56;14.27;;;9.43;;
71513;SDS011;59335;46.652;21.272;2024-01-15T06:10:00;14.48;;;8.98;;
71513;SDS011;59335;46.652;21.272;2024-01-15T06:13:02;15.38;;;9.40;;
71513;SDS011;59335;46.652;21.272;2024-01-15T06:16:13;13.07;;;8.60;;
71513;SDS011;59335;46.652;21.272;2024-01-15T06:19:19;13.80;;;9.00;;
71513;SDS011;59335;46.652;21.272;2024-01-15T06:22:22;12.63;;;8.88;;
71513;SDS011;59335;46.652;21.272;2024-01-15T06:25:24;12.65;;;8.73;;
71513;SDS011;59335;46.652;21.272;2024-01-15T06:28:27;12.93;;;8.40;;
71513;SDS011;59335;46.652;21.272;2024-01-15T06:31:30;13.57;;;8.60;;
71513;SDS011;59335;46.652;21.272;2024-01-15T06:34:33;15.68;;;9.07;;
71513;SDS011;59335;46.652;21.272;2024-01-15T06:37:36;15.23;;;8.75;;
71513;SDS011;59335;46.652;21.272;2024-01-15T06:40:39;14.90;;;8.32;;
71513;SDS011;59335;46.652;21.272;2024-01-15T06:43:48;13.45;;;8.82;;
71513;SDS011;59335;46.652;21.272;2024-01-15T06:46:52;13.63;;;8.33;;
71513;SDS011;59335;46.652;21.272;2024-01-15T06:49:59;12.43;;;7.78;;
71513;SDS011;59335;46.652;21.272;2024-01-15T06:53:02;15.85;;;8.10;;
71513;SDS011;59335;46.652;21.272;2024-01-15T06:56:06;11.95;;;7.90;;
71513;SDS011;59335;46.652;21.272;2024-01-15T06:59:11;14.65;;;8.55;;
71513;SDS011;59335;46.652;21.272;2024-01-15T07:02:16;13.57;;;8.70;;
71513;SDS011;59335;46.652;21.272;2024-01-15T07:05:20;12.93;;;8.07;;
71513;SDS011;59335;46.652;21.272;2024-01-15T07:08:25;22.45;;;8.52;;
71513;SDS011;59335;46.652;21.272;2024-01-15T07:11:31;12.48;;;8.05;;
71513;SDS011;59335;46.652;21.272;2024-01-15T07:14:34;13.45;;;8.30;;
71513;SDS011;59335;46.652;21.272;2024-01-15T07:17:37;13.70;;;8.00;;
71513;SDS011;59335;46.652;21.272;2024-01-15T07:20:49;14.43;;;8.23;;
71513;SDS011;59335;46.652;21.272;2024-01-15T07:23:53;11.55;;;7.75;;
71513;SDS011;59335;46.652;21.272;2024-01-15T07:26:59;13.80;;;8.27;;
71513;SDS011;59335;46.652;21.272;2024-01-15T07:30:04;11.45;;;7.43;;
71513;SDS011;59335;46.652;21.272;2024-01-15T07:33:09;12.20;;;7.67;;
71513;SDS011;59335;46.652;21.272;2024-01-15T07:36:13;13.20;;;8.35;;
71513;SDS011;59335;46.652;21.272;2024-01-15T07:39:16;14.13;;;8.45;;
71513;SDS011;59335;46.652;21.272;2024-01-15T07:42:21;14.38;;;8.15;;
71513;SDS011;59335;46.652;21.272;2024-01-15T07:45:25;13.38;;;8.48;;
71513;SDS011;59335;46.652;21.272;2024-01-15T07:48:29;13.07;;;7.80;;
71513;SDS011;59335;46.652;21.272;2024-01-15T07:51:33;12.05;;;7.80;;
71513;SDS011;59335;46.652;21.272;2024-01-15T07:54:37;13.40;;;8.20;;
71513;SDS011;59335;46.652;21.272;2024-01-15T07:57:41;13.73;;;7.82;;
71513;SDS011;59335;46.652;21.272;2024-01-15T08:00:47;14.00;;;8.05;;
71513;SDS011;59335;46.652;21.272;2024-01-15T08:03:52;15.20;;;7.93;;
71513;SDS011;59335;46.652;21.272;2024-01-15T08:06:57;15.13;;;8.10;;
71513;SDS011;59335;46.652;21.272;2024-01-15T08:10:02;16.13;;;8.15;;
71513;SDS011;59335;46.652;21.272;2024-01-15T08:13:08;15.32;;;7.38;;
71513;SDS011;59335;46.652;21.272;2024-01-15T08:16:11;11.93;;;7.57;;
71513;SDS011;59335;46.652;21.272;2024-01-15T08:19:15;16.20;;;7.53;;
71513;SDS011;59335;46.652;21.272;2024-01-15T08:22:18;12.18;;;7.28;;
71513;SDS011;59335;46.652;21.272;2024-01-15T08:25:22;12.93;;;7.70;;
71513;SDS011;59335;46.652;21.272;2024-01-15T08:28:26;12.88;;;7.53;;
71513;SDS011;59335;46.652;21.272;2024-01-15T08:31:29;12.85;;;7.75;;
71513;SDS011;59335;46.652;21.272;2024-01-15T08:34:34;12.80;;;7.07;;
71513;SDS011;59335;46.652;21.272;2024-01-15T08:37:38;12.40;;;6.85;;
71513;SDS011;59335;46.652;21.272;2024-01-15T08:40:41;12.45;;;7.45;;
71513;SDS011;59335;46.652;21.272;2024-01-15T08:43:44;13.77;;;7.32;;
71513;SDS011;59335;46.652;21.272;2024-01-15T08:46:51;11.00;;;6.85;;
71513;SDS011;59335;46.652;21.272;2024-01-15T08:49:55;12.20;;;7.47;;
71513;SDS011;59335;46.652;21.272;2024-01-15T08:53:00;13.25;;;7.25;;
71513;SDS011;59335;46.652;21.272;2024-01-15T08:56:06;14.05;;;7.90;;
71513;SDS011;59335;46.652;21.272;2024-01-15T08:59:09;15.85;;;7.30;;
71513;SDS011;59335;46.652;21.272;2024-01-15T09:02:13;14.40;;;7.35;;
71513;SDS011;59335;46.652;21.272;2024-01-15T09:05:17;16.30;;;7.33;;
71513;SDS011;59335;46.652;21.272;2024-01-15T09:08:20;14.95;;;7.53;;
71513;SDS011;59335;46.652;21.272;2024-01-15T09:11:30;14.00;;;7.50;;
71513;SDS011;59335;46.652;21.272;2024-01-15T09:14:36;14.63;;;7.90;;
71513;SDS011;59335;46.652;21.272;2024-01-15T09:17:40;14.27;;;7.57;;
71513;SDS011;59335;46.652;21.272;2024-01-15T09:20:45;13.67;;;7.30;;
71513;SDS011;59335;46.652;21.272;2024-01-15T09:23:51;14.00;;;6.95;;
71513;SDS011;59335;46.652;21.272;2024-01-15T09:26:54;17.27;;;8.05;;
71513;SDS011;59335;46.652;21.272;2024-01-15T09:30:06;13.77;;;7.88;;
71513;SDS011;59335;46.652;21.272;2024-01-15T09:33:09;13.30;;;7.22;;
71513;SDS011;59335;46.652;21.272;2024-01-15T09:36:12;14.70;;;7.30;;
71513;SDS011;59335;46.652;21.272;2024-01-15T09:39:19;13.63;;;7.43;;
71513;SDS011;59335;46.652;21.272;2024-01-15T09:42:23;14.77;;;7.30;;
71513;SDS011;59335;46.652;21.272;2024-01-15T09:45:29;14.73;;;7.25;;
71513;SDS011;59335;46.652;21.272;2024-01-15T09:48:34;12.93;;;7.32;;
71513;SDS011;59335;46.652;21.272;2024-01-15T09:51:39;13.53;;;7.00;;
71513;SDS011;59335;46.652;21.272;2024-01-15T09:54:43;13.48;;;7.88;;
71513;SDS011;59335;46.652;21.272;2024-01-15T09:57:50;20.35;;;7.50;;
71513;SDS011;59335;46.652;21.272;2024-01-15T10:00:54;14.43;;;7.15;;
71513;SDS011;59335;46.652;21.272;2024-01-15T10:03:58;14.75;;;7.50;;
71513;SDS011;59335;46.652;21.272;2024-01-15T10:07:03;15.00;;;7.37;;
71513;SDS011;59335;46.652;21.272;2024-01-15T10:10:11;14.77;;;7.82;;
71513;SDS011;59335;46.652;21.272;2024-01-15T10:13:17;17.77;;;7.22;;
71513;SDS011;59335;46.652;21.272;2024-01-15T10:16:23;18.15;;;7.35;;
71513;SDS011;59335;46.652;21.272;2024-01-15T10:19:26;17.42;;;7.18;;
71513;SDS011;59335;46.652;21.272;2024-01-15T10:22:29;15.00;;;7.53;;
71513;SDS011;59335;46.652;21.272;2024-01-15T10:25:35;17.42;;;8.05;;
71513;SDS011;59335;46.652;21.272;2024-01-15T10:28:38;12.77;;;6.88;;
71513;SDS011;59335;46.652;21.272;2024-01-15T10:31:42;14.38;;;7.60;;
71513;SDS011;59335;46.652;21.272;2024-01-15T10:34:46;16.33;;;7.38;;
71513;SDS011;59335;46.652;21.272;2024-01-15T10:37:50;13.77;;;7.20;;
71513;SDS011;59335;46.652;21.272;2024-01-15T10:40:55;13.80;;;7.38;;
71513;SDS011;59335;46.652;21.272;2024-01-15T10:44:00;13.18;;;7.07;;
71513;SDS011;59335;46.652;21.272;2024-01-15T10:47:03;13.73;;;7.07;;
71513;SDS011;59335;46.652;21.272;2024-01-15T10:50:08;12.00;;;7.50;;
71513;SDS011;59335;46.652;21.272;2024-01-15T10:53:17;13.60;;;7.20;;
71513;SDS011;59335;46.652;21.272;2024-01-15T10:56:21;13.27;;;7.38;;
71513;SDS011;59335;46.652;21.272;2024-01-15T10:59:31;19.77;;;7.25;;
71513;SDS011;59335;46.652;21.272;2024-01-15T11:02:35;17.73;;;7.90;;
71513;SDS011;59335;46.652;21.272;2024-01-15T11:05:43;18.45;;;7.63;;
71513;SDS011;59335;46.652;21.272;2024-01-15T11:08:49;14.77;;;7.30;;
71513;SDS011;59335;46.652;21.272;2024-01-15T11:15:16;15.23;;;7.40;;
71513;SDS011;59335;46.652;21.272;2024-01-15T11:18:23;16.08;;;7.60;;
71513;SDS011;59335;46.652;21.272;2024-01-15T11:21:31;13.40;;;7.57;;
71513;SDS011;59335;46.652;21.272;2024-01-15T11:27:54;13.63;;;6.82;;
71513;SDS011;59335;46.652;21.272;2024-01-15T11:30:59;16.58;;;7.82;;
71513;SDS011;59335;46.652;21.272;2024-01-15T11:34:02;14.55;;;6.95;;
71513;SDS011;59335;46.652;21.272;2024-01-15T11:37:08;16.90;;;7.32;;
71513;SDS011;59335;46.652;21.272;2024-01-15T11:40:11;11.47;;;7.23;;
71513;SDS011;59335;46.652;21.272;2024-01-15T11:43:14;16.85;;;6.90;;
71513;SDS011;59335;46.652;21.272;2024-01-15T11:46:19;12.80;;;7.28;;
71513;SDS011;59335;46.652;21.272;2024-01-15T11:49:48;19.25;;;7.43;;
71513;SDS011;59335;46.652;21.272;2024-01-15T11:53:01;15.65;;;7.40;;
71513;SDS011;59335;46.652;21.272;2024-01-15T11:56:18;15.97;;;7.60;;
71513;SDS011;59335;46.652;21.272;2024-01-15T11:59:25;20.17;;;7.63;;
71513;SDS011;59335;46.652;21.272;2024-01-15T12:02:28;16.60;;;8.27;;
71513;SDS011;59335;46.652;21.272;2024-01-15T12:05:47;19.10;;;8.45;;
71513;SDS011;59335;46.652;21.272;2024-01-15T12:08:50;15.45;;;7.88;;
71513;SDS011;59335;46.652;21.272;2024-01-15T12:12:07;19.50;;;7.40;;
71513;SDS011;59335;46.652;21.272;2024-01-15T12:15:16;21.50;;;7.95;;
71513;SDS011;59335;46.652;21.272;2024-01-15T12:18:20;15.25;;;7.65;;
71513;SDS011;59335;46.652;21.272;2024-01-15T12:21:26;13.65;;;7.57;;
71513;SDS011;59335;46.652;21.272;2024-01-15T12:24:30;15.82;;;7.85;;
71513;SDS011;59335;46.652;21.272;2024-01-15T12:27:34;13.40;;;7.40;;
71513;SDS011;59335;46.652;21.272;2024-01-15T12:30:38;16.15;;;7.78;;
71513;SDS011;59335;46.652;21.272;2024-01-15T12:33:41;15.00;;;7.82;;
71513;SDS011;59335;46.652;21.272;2024-01-15T12:36:48;16.65;;;7.68;;
71513;SDS011;59335;46.652;21.272;2024-01-15T12:39:51;14.05;;;7.80;;
71513;SDS011;59335;46.652;21.272;2024-01-15T12:42:55;16.87;;;8.17;;
71513;SDS011;59335;46.652;21.272;2024-01-15T12:46:03;13.80;;;7.18;;
71513;SDS011;59335;46.652;21.272;2024-01-15T12:49:07;15.27;;;7.65;;
71513;SDS011;59335;46.652;21.272;2024-01-15T12:52:10;16.05;;;7.50;;
71513;SDS011;59335;46.652;21.272;2024-01-15T12:55:13;21.25;;;9.10;;
71513;SDS011;59335;46.652;21.272;2024-01-15T12:58:17;18.43;;;9.40;;
71513;SDS011;59335;46.652;21.272;2024-01-15T13:01:22;26.63;;;9.38;;
71513;SDS011;59335;46.652;21.272;2024-01-15T13:04:26;20.15;;;8.65;;
71513;SDS011;59335;46.652;21.272;2024-01-15T13:07:30;17.88;;;8.45;;
71513;SDS011;59335;46.652;21.272;2024-01-15T13:10:34;17.63;;;8.40;;
71513;SDS011;59335;46.652;21.272;2024-01-15T13:13:37;17.33;;;8.43;;
71513;SDS011;59335;46.652;21.272;2024-01-15T13:16:40;19.15;;;8.07;;
71513;SDS011;59335;46.652;21.272;2024-01-15T13:19:44;19.27;;;9.00;;
71513;SDS011;59335;46.652;21.272;2024-01-15T13:22:47;14.88;;;7.70;;
71513;SDS011;59335;46.652;21.272;2024-01-15T13:25:51;15.77;;;8.20;;
71513;SDS011;59335;46.652;21.272;2024-01-15T13:28:53;14.43;;;8.10;;
71513;SDS011;59335;46.652;21.272;2024-01-15T13:31:58;17.20;;;8.55;;
71513;SDS011;59335;46.652;21.272;2024-01-15T13:35:01;17.73;;;8.18;;
71513;SDS011;59335;46.652;21.272;2024-01-15T13:38:07;16.00;;;8.20;;
71513;SDS011;59335;46.652;21.272;2024-01-15T13:41:11;18.45;;;8.35;;
71513;SDS011;59335;46.652;21.272;2024-01-15T13:44:14;18.60;;;8.40;;
71513;SDS011;59335;46.652;21.272;2024-01-15T13:47:18;18.48;;;8.30;;
71513;SDS011;59335;46.652;21.272;2024-01-15T13:50:21;15.45;;;8.10;;
71513;SDS011;59335;46.652;21.272;2024-01-15T13:53:28;17.58;;;8.57;;
71513;SDS011;59335;46.652;21.272;2024-01-15T13:56:33;15.95;;;8.55;;
71513;SDS011;59335;46.652;21.272;2024-01-15T13:59:37;20.83;;;9.50;;
71513;SDS011;59335;46.652;21.272;2024-01-15T14:02:46;18.75;;;11.15;;
71513;SDS011;59335;46.652;21.272;2024-01-15T14:05:49;26.30;;;13.40;;
71513;SDS011;59335;46.652;21.272;2024-01-15T14:08:53;25.92;;;12.65;;
71513;SDS011;59335;46.652;21.272;2024-01-15T14:11:56;19.58;;;13.35;;
71513;SDS011;59335;46.652;21.272;2024-01-15T14:14:59;23.40;;;13.00;;
71513;SDS011;59335;46.652;21.272;2024-01-15T14:18:04;21.00;;;12.88;;
71513;SDS011;59335;46.652;21.272;2024-01-15T14:21:07;22.55;;;14.90;;
71513;SDS011;59335;46.652;21.272;2024-01-15T14:24:10;20.20;;;13.60;;
71513;SDS011;59335;46.652;21.272;2024-01-15T14:27:14;21.98;;;14.40;;
71513;SDS011;59335;46.652;21.272;2024-01-15T14:30:17;21.33;;;14.07;;
71513;SDS011;59335;46.652;21.272;2024-01-15T14:33:21;23.88;;;14.98;;
71513;SDS011;59335;46.652;21.272;2024-01-15T14:36:24;24.65;;;14.60;;
71513;SDS011;59335;46.652;21.272;2024-01-15T14:39:27;24.65;;;14.52;;
71513;SDS011;59335;46.652;21.272;2024-01-15T14:42:33;24.92;;;14.15;;
71513;SDS011;59335;46.652;21.272;2024-01-15T14:45:37;19.80;;;13.03;;
71513;SDS011;59335;46.652;21.272;2024-01-15T14:48:40;21.15;;;12.65;;
71513;SDS011;59335;46.652;21.272;2024-01-15T14:51:45;18.33;;;12.45;;
71513;SDS011;59335;46.652;21.272;2024-01-15T14:54:49;22.85;;;12.40;;
71513;SDS011;59335;46.652;21.272;2024-01-15T14:57:55;30.00;;;12.07;;
71513;SDS011;59335;46.652;21.272;2024-01-15T15:00:58;19.60;;;11.00;;
71513;SDS011;59335;46.652;21.272;2024-01-15T15:04:02;23.95;;;11.68;;
71513;SDS011;59335;46.652;21.272;2024-01-15T15:07:05;18.08;;;11.68;;
71513;SDS011;59335;46.652;21.272;2024-01-15T15:10:09;20.10;;;11.35;;
71513;SDS011;59335;46.652;21.272;2024-01-15T15:13:13;20.20;;;11.43;;
71513;SDS011;59335;46.652;21.272;2024-01-15T15:16:17;18.30;;;11.00;;
71513;SDS011;59335;46.652;21.272;2024-01-15T15:19:20;19.20;;;11.20;;
71513;SDS011;59335;46.652;21.272;2024-01-15T15:22:23;19.92;;;12.13;;
71513;SDS011;59335;46.652;21.272;2024-01-15T15:25:27;24.42;;;10.60;;
71513;SDS011;59335;46.652;21.272;2024-01-15T15:28:30;20.77;;;11.48;;
71513;SDS011;59335;46.652;21.272;2024-01-15T15:31:33;20.37;;;11.47;;
71513;SDS011;59335;46.652;21.272;2024-01-15T15:34:35;19.38;;;11.48;;
71513;SDS011;59335;46.652;21.272;2024-01-15T15:37:38;18.73;;;11.32;;
71513;SDS011;59335;46.652;21.272;2024-01-15T15:40:41;19.55;;;10.77;;
71513;SDS011;59335;46.652;21.272;2024-01-15T15:43:44;21.60;;;10.60;;
71513;SDS011;59335;46.652;21.272;2024-01-15T15:46:46;20.27;;;10.67;;
71513;SDS011;59335;46.652;21.272;2024-01-15T15:49:49;19.17;;;11.18;;
71513;SDS011;59335;46.652;21.272;2024-01-15T15:52:52;18.05;;;10.80;;
71513;SDS011;59335;46.652;21.272;2024-01-15T15:55:55;22.90;;;10.82;;
71513;SDS011;59335;46.652;21.272;2024-01-15T15:58:59;19.40;;;11.13;;
71513;SDS011;59335;46.652;21.272;2024-01-15T16:02:04;20.93;;;11.03;;
71513;SDS011;59335;46.652;21.272;2024-01-15T16:05:07;18.02;;;10.93;;
71513;SDS011;59335;46.652;21.272;2024-01-15T16:08:13;18.27;;;10.95;;
71513;SDS011;59335;46.652;21.272;2024-01-15T16:11:16;17.60;;;10.50;;
71513;SDS011;59335;46.652;21.272;2024-01-15T16:14:20;21.45;;;11.20;;
71513;SDS011;59335;46.652;21.272;2024-01-15T16:17:23;17.23;;;10.77;;
71513;SDS011;59335;46.652;21.272;2024-01-15T16:20:46;18.55;;;9.93;;
71513;SDS011;59335;46.652;21.272;2024-01-15T16:24:09;20.30;;;10.95;;
71513;SDS011;59335;46.652;21.272;2024-01-15T16:27:27;17.50;;;11.07;;
71513;SDS011;59335;46.652;21.272;2024-01-15T16:30:30;16.05;;;10.60;;
71513;SDS011;59335;46.652;21.272;2024-01-15T16:33:45;17.00;;;10.17;;
71513;SDS011;59335;46.652;21.272;2024-01-15T16:36:54;14.85;;;10.30;;
71513;SDS011;59335;46.652;21.272;2024-01-15T16:39:56;18.50;;;11.35;;
71513;SDS011;59335;46.652;21.272;2024-01-15T16:42:59;17.25;;;11.32;;
71513;SDS011;59335;46.652;21.272;2024-01-15T16:46:02;19.48;;;11.63;;
71513;SDS011;59335;46.652;21.272;2024-01-15T16:49:04;18.40;;;10.50;;
71513;SDS011;59335;46.652;21.272;2024-01-15T16:52:12;18.23;;;10.80;;
71513;SDS011;59335;46.652;21.272;2024-01-15T16:55:15;16.42;;;10.90;;
71513;SDS011;59335;46.652;21.272;2024-01-15T16:58:19;15.75;;;10.35;;
71513;SDS011;59335;46.652;21.272;2024-01-15T17:01:22;18.05;;;10.98;;
71513;SDS011;59335;46.652;21.272;2024-01-15T17:04:25;16.97;;;10.50;;
71513;SDS011;59335;46.652;21.272;2024-01-15T17:07:28;19.88;;;10.70;;
71513;SDS011;59335;46.652;21.272;2024-01-15T17:10:31;17.83;;;10.55;;
71513;SDS011;59335;46.652;21.272;2024-01-15T17:13:35;16.20;;;10.40;;
71513;SDS011;59335;46.652;21.272;2024-01-15T17:16:38;19.13;;;9.98;;
71513;SDS011;59335;46.652;21.272;2024-01-15T17:19:41;19.17;;;10.57;;
71513;SDS011;59335;46.652;21.272;2024-01-15T17:22:44;17.27;;;11.02;;
71513;SDS011;59335;46.652;21.272;2024-01-15T17:25:47;15.68;;;10.02;;
71513;SDS011;59335;46.652;21.272;2024-01-15T17:28:51;16.92;;;10.60;;
71513;SDS011;59335;46.652;21.272;2024-01-15T17:31:55;18.38;;;10.88;;
71513;SDS011;59335;46.652;21.272;2024-01-15T17:34:58;16.07;;;10.00;;
71513;SDS011;59335;46.652;21.272;2024-01-15T17:38:02;18.48;;;11.10;;
71513;SDS011;59335;46.652;21.272;2024-01-15T17:41:05;15.95;;;10.15;;
71513;SDS011;59335;46.652;21.272;2024-01-15T17:44:08;17.73;;;10.95;;
71513;SDS011;59335;46.652;21.272;2024-01-15T17:47:11;17.17;;;10.75;;
71513;SDS011;59335;46.652;21.272;2024-01-15T17:50:15;15.57;;;10.03;;
71513;SDS011;59335;46.652;21.272;2024-01-15T17:53:17;17.77;;;10.00;;
71513;SDS011;59335;46.652;21.272;2024-01-15T17:56:22;17.13;;;10.13;;